Time;durP1;ratioP1;P1;durP2;ratioP2;P2;SDS_P1;SDS_P2;PMS_P1;PMS_P2;Temp;Humidity;BMP_temperature;BMP_pressure;BME280_temperature;BME280_humidity;BME280_pressure;Samples;Min_cycle;Max_cycle;Signal;HPM_P1;HPM_P2
2022/07/25 00:00:10;;;;;;;9.27;2.88;;;17.00;99.90;;;;;;5062347;28;20430;-85
2022/07/25 00:02:36;;;;;;;3.17;2.70;;;16.90;99.90;;;;;;5062162;28;20424;-85
2022/07/25 00:05:02;;;;;;;4.47;2.58;;;17.00;99.90;;;;;;5059822;28;20420;-85
2022/07/25 00:07:28;;;;;;;3.60;2.92;;;16.90;99.90;;;;;;5051207;28;20396;-84
2022/07/25 00:09:54;;;;;;;3.08;2.75;;;16.90;99.90;;;;;;5049456;28;20407;-85
2022/07/25 00:12:20;;;;;;;2.70;2.47;;;16.90;99.90;;;;;;5050622;28;20873;-85
2022/07/25 00:14:47;;;;;;;2.90;2.60;;;16.90;99.90;;;;;;5049668;28;20376;-83
2022/07/25 00:17:13;;;;;;;2.70;2.47;;;16.90;99.90;;;;;;5050940;28;20383;-84
2022/07/25 00:19:39;;;;;;;2.72;2.53;;;16.90;99.90;;;;;;5055562;28;20425;-85
2022/07/25 00:22:05;;;;;;;3.03;2.72;;;16.90;99.90;;;;;;5049788;28;20387;-84
2022/07/25 00:24:30;;;;;;;3.13;2.65;;;16.90;99.90;;;;;;5049379;28;20745;-84
2022/07/25 00:26:56;;;;;;;3.13;2.40;;;16.90;99.90;;;;;;5051826;28;20386;-85
2022/07/25 00:29:22;;;;;;;3.30;2.47;;;16.90;99.90;;;;;;5057311;28;20781;-86
2022/07/25 00:31:48;;;;;;;2.85;2.45;;;16.90;99.90;;;;;;5061526;28;20426;-85
2022/07/25 00:34:13;;;;;;;2.90;2.70;;;16.80;99.90;;;;;;5058940;28;20923;-85
2022/07/25 00:36:39;;;;;;;2.63;2.42;;;16.80;99.90;;;;;;5059266;28;20400;-86
2022/07/25 00:39:05;;;;;;;3.23;2.53;;;16.80;99.90;;;;;;5057814;28;20433;-86
2022/07/25 00:41:31;;;;;;;3.90;2.70;;;16.80;99.90;;;;;;5059309;28;20374;-86
2022/07/25 00:43:56;;;;;;;3.05;2.65;;;16.80;99.90;;;;;;5058540;28;20422;-86
2022/07/25 00:46:22;;;;;;;2.90;2.50;;;16.80;99.90;;;;;;5037893;28;20380;-86
2022/07/25 00:48:48;;;;;;;2.87;2.60;;;16.70;99.90;;;;;;5041520;28;20416;-86
2022/07/25 00:51:15;;;;;;;3.17;2.88;;;16.70;99.90;;;;;;5041398;28;20383;-86
2022/07/25 00:53:41;;;;;;;3.53;2.78;;;16.60;99.90;;;;;;5040028;28;20395;-85
2022/07/25 00:56:07;;;;;;;2.63;2.42;;;16.60;99.90;;;;;;5041492;28;20374;-86
2022/07/25 00:58:33;;;;;;;4.17;2.53;;;16.60;99.90;;;;;;5059155;28;20368;-85
2022/07/25 01:00:59;;;;;;;3.30;3.00;;;16.60;99.90;;;;;;5039459;28;20383;-86
2022/07/25 01:03:25;;;;;;;3.70;2.70;;;16.50;99.90;;;;;;5040870;28;20404;-85
2022/07/25 01:05:51;;;;;;;3.20;2.70;;;16.40;99.90;;;;;;5041106;28;20392;-85
2022/07/25 01:08:21;;;;;;;3.77;3.07;;;16.40;99.90;;;;;;5057787;28;20368;-85
2022/07/25 01:10:49;;;;;;;3.30;2.90;;;16.40;99.90;;;;;;5057781;28;20744;-85
2022/07/25 01:13:15;;;;;;;3.15;2.85;;;16.30;99.90;;;;;;5033798;28;20385;-85
2022/07/25 01:15:42;;;;;;;2.73;2.53;;;16.30;99.90;;;;;;5032039;28;20392;-85
2022/07/25 01:18:07;;;;;;;3.33;3.03;;;16.30;99.90;;;;;;5031630;28;20746;-84
2022/07/25 01:20:33;;;;;;;3.73;2.90;;;16.20;99.90;;;;;;5030911;28;20406;-84
2022/07/25 01:23:00;;;;;;;3.83;3.00;;;16.20;99.90;;;;;;5031096;28;20395;-85
2022/07/25 01:25:26;;;;;;;3.38;2.90;;;16.20;99.90;;;;;;5049087;28;20379;-85
2022/07/25 01:27:53;;;;;;;2.92;2.72;;;16.10;99.90;;;;;;5031638;28;20384;-85
2022/07/25 01:30:19;;;;;;;2.83;2.53;;;16.20;99.90;;;;;;5049284;28;20453;-84
2022/07/25 01:32:46;;;;;;;3.10;2.80;;;16.10;99.90;;;;;;5049899;28;20372;-85
2022/07/25 01:35:13;;;;;;;3.03;2.83;;;16.10;99.90;;;;;;5049140;28;20395;-85
2022/07/25 01:37:39;;;;;;;3.33;2.80;;;16.10;99.90;;;;;;5050021;28;20403;-84
2022/07/25 01:40:06;;;;;;;2.88;2.63;;;16.00;99.90;;;;;;5031754;28;20404;-84
2022/07/25 01:42:32;;;;;;;3.58;3.10;;;16.00;99.90;;;;;;5049202;28;20928;-85
2022/07/25 01:44:57;;;;;;;3.25;2.95;;;15.90;99.90;;;;;;5049635;28;20415;-85
2022/07/25 01:47:23;;;;;;;4.33;2.60;;;16.00;99.90;;;;;;5049553;28;20399;-85
2022/07/25 01:49:49;;;;;;;2.90;2.70;;;15.90;99.90;;;;;;5031414;28;20404;-85
2022/07/25 01:52:15;;;;;;;3.92;2.92;;;15.80;99.90;;;;;;5031689;28;20380;-85
2022/07/25 01:54:40;;;;;;;3.07;2.77;;;15.80;99.90;;;;;;5049447;28;20376;-85
2022/07/25 01:57:07;;;;;;;3.22;2.72;;;15.80;99.90;;;;;;5049997;28;20896;-85
2022/07/25 01:59:37;;;;;;;3.47;3.17;;;15.80;99.90;;;;;;5031670;28;20416;-84
2022/07/25 02:02:04;;;;;;;3.55;2.70;;;15.70;99.90;;;;;;5031535;28;20372;-84
2022/07/25 02:04:30;;;;;;;3.13;2.83;;;15.70;99.90;;;;;;5031495;28;20404;-85
2022/07/25 02:06:56;;;;;;;3.22;2.92;;;15.70;99.90;;;;;;5049167;28;20865;-85
2022/07/25 02:09:21;;;;;;;3.13;2.83;;;15.70;99.90;;;;;;5031640;28;20372;-85
2022/07/25 02:11:47;;;;;;;4.53;3.03;;;15.60;99.90;;;;;;5050107;28;20384;-85
2022/07/25 02:14:12;;;;;;;3.30;3.00;;;15.70;99.90;;;;;;5031712;28;20459;-84
2022/07/25 02:16:38;;;;;;;4.27;3.10;;;15.70;99.90;;;;;;5031249;28;20470;-85
2022/07/25 02:19:04;;;;;;;3.22;2.92;;;15.70;99.90;;;;;;5030982;28;20470;-85
2022/07/25 02:21:29;;;;;;;3.00;2.80;;;15.70;99.90;;;;;;5048466;28;20391;-85
2022/07/25 02:23:55;;;;;;;3.30;3.00;;;15.70;99.90;;;;;;5031602;28;20449;-84
2022/07/25 02:26:21;;;;;;;2.97;2.67;;;15.70;99.90;;;;;;5031675;28;20788;-85
2022/07/25 02:28:48;;;;;;;3.83;3.13;;;15.70;99.90;;;;;;5049248;28;20711;-84
2022/07/25 02:31:14;;;;;;;3.13;2.70;;;15.70;99.90;;;;;;5049448;28;20790;-84
2022/07/25 02:33:39;;;;;;;3.90;2.83;;;15.70;99.90;;;;;;5031760;28;20594;-85
2022/07/25 02:36:06;;;;;;;3.78;2.67;;;15.70;99.90;;;;;;5030560;28;20434;-86
2022/07/25 02:38:31;;;;;;;2.88;2.67;;;15.60;99.90;;;;;;5030915;28;20714;-85
2022/07/25 02:40:57;;;;;;;3.40;2.70;;;15.60;99.90;;;;;;5031095;28;20379;-85
2022/07/25 02:43:22;;;;;;;3.00;2.78;;;15.70;99.90;;;;;;5031470;28;20403;-86
2022/07/25 02:45:48;;;;;;;4.83;2.97;;;15.70;99.90;;;;;;5043783;28;20388;-86
2022/07/25 02:48:14;;;;;;;3.35;3.00;;;15.70;99.90;;;;;;5048321;28;20406;-85
2022/07/25 02:50:40;;;;;;;3.50;3.20;;;15.60;99.90;;;;;;5046989;28;20479;-84
2022/07/25 02:53:05;;;;;;;2.70;2.50;;;15.60;99.90;;;;;;5047403;28;20404;-84
2022/07/25 02:55:31;;;;;;;3.63;3.00;;;15.60;99.90;;;;;;5047379;28;20805;-85
2022/07/25 02:57:57;;;;;;;3.20;2.70;;;15.60;99.90;;;;;;5047304;28;20799;-84
2022/07/25 03:00:23;;;;;;;3.17;2.93;;;15.60;99.90;;;;;;5048898;28;20860;-85
2022/07/25 03:02:49;;;;;;;3.23;2.93;;;15.50;99.90;;;;;;5047153;28;20462;-85
2022/07/25 03:05:15;;;;;;;4.18;2.50;;;15.50;99.90;;;;;;5047031;28;20503;-85
2022/07/25 03:07:42;;;;;;;2.83;2.60;;;15.60;99.90;;;;;;5047919;28;20387;-84
2022/07/25 03:10:10;;;;;;;2.73;2.53;;;15.60;99.90;;;;;;5059350;28;20747;-84
2022/07/25 03:12:36;;;;;;;3.00;2.70;;;15.60;99.90;;;;;;5053294;28;20491;-84
2022/07/25 03:15:06;;;;;;;3.28;2.72;;;15.70;99.90;;;;;;5048758;28;20384;-85
2022/07/25 03:17:32;;;;;;;3.00;2.70;;;15.70;99.90;;;;;;5047461;28;20383;-84
2022/07/25 03:20:00;;;;;;;3.10;2.90;;;15.80;99.90;;;;;;5048374;28;20908;-84
2022/07/25 03:22:26;;;;;;;3.20;2.90;;;15.80;99.90;;;;;;5048627;28;20455;-85
2022/07/25 03:24:52;;;;;;;3.53;2.80;;;15.80;99.90;;;;;;5064069;28;20498;-84
2022/07/25 03:27:18;;;;;;;4.80;3.13;;;15.80;99.90;;;;;;5068544;28;20377;-85
2022/07/25 03:29:44;;;;;;;7.68;3.40;;;15.80;99.90;;;;;;5067321;28;20408;-84
2022/07/25 03:32:10;;;;;;;3.87;3.10;;;15.80;99.90;;;;;;5066660;28;20797;-84
2022/07/25 03:34:36;;;;;;;4.38;3.03;;;15.80;99.90;;;;;;5066980;28;20366;-85
2022/07/25 03:37:01;;;;;;;3.17;2.80;;;15.80;99.90;;;;;;5069181;28;20457;-85
2022/07/25 03:39:27;;;;;;;4.70;3.03;;;15.80;99.90;;;;;;5070646;28;20462;-84
2022/07/25 03:41:55;;;;;;;5.85;2.85;;;15.80;99.90;;;;;;5070683;28;20393;-85
2022/07/25 03:44:22;;;;;;;3.40;3.10;;;15.90;99.90;;;;;;5070293;28;20760;-85
2022/07/25 03:46:47;;;;;;;3.97;2.60;;;15.80;99.90;;;;;;5064469;28;20368;-83
2022/07/25 03:49:13;;;;;;;4.28;2.67;;;15.80;99.90;;;;;;5050906;28;20440;-84
2022/07/25 03:51:38;;;;;;;2.80;2.60;;;15.80;99.90;;;;;;5051270;28;20430;-84
2022/07/25 03:54:05;;;;;;;11.45;3.60;;;15.80;99.90;;;;;;5052296;28;20773;-84
2022/07/25 03:56:42;;;;;;;15.88;3.92;;;15.80;99.90;;;;;;5052593;28;20380;-83
2022/07/25 03:59:08;;;;;;;5.15;2.78;;;15.70;99.90;;;;;;5050963;28;20904;-85
2022/07/25 04:01:34;;;;;;;3.23;2.53;;;15.70;99.90;;;;;;5052048;28;20380;-83
2022/07/25 04:04:00;;;;;;;3.63;2.80;;;15.80;99.90;;;;;;5051345;28;20451;-84
2022/07/25 04:06:27;;;;;;;4.15;2.72;;;15.70;99.90;;;;;;5051056;28;20438;-84
2022/07/25 04:08:53;;;;;;;3.75;2.60;;;15.80;99.90;;;;;;5053601;28;20384;-83
2022/07/25 04:11:19;;;;;;;3.30;2.75;;;15.80;99.90;;;;;;5053780;28;20391;-83
2022/07/25 04:13:45;;;;;;;3.20;2.88;;;15.80;99.90;;;;;;5052384;28;20361;-84
2022/07/25 04:16:11;;;;;;;3.05;2.60;;;15.80;99.90;;;;;;5050697;28;20372;-83
2022/07/25 04:18:37;;;;;;;4.28;2.60;;;15.90;99.90;;;;;;5050304;28;20391;-84
2022/07/25 04:21:04;;;;;;;8.45;3.10;;;15.90;99.90;;;;;;5049137;28;20487;-84
2022/07/25 04:23:30;;;;;;;4.30;2.60;;;16.00;99.90;;;;;;5049755;28;20465;-84
2022/07/25 04:25:56;;;;;;;3.60;2.60;;;16.10;99.90;;;;;;5049933;28;20384;-83
2022/07/25 04:28:23;;;;;;;3.20;2.90;;;16.10;99.90;;;;;;5050012;28;20376;-82
2022/07/25 04:30:49;;;;;;;3.00;2.70;;;16.20;99.90;;;;;;5049028;28;20869;-83
2022/07/25 04:33:15;;;;;;;2.92;2.70;;;16.20;99.90;;;;;;5049760;28;20383;-84
2022/07/25 04:35:41;;;;;;;2.67;2.47;;;16.20;99.90;;;;;;5050458;28;20376;-82
2022/07/25 04:38:07;;;;;;;3.63;2.80;;;16.20;99.90;;;;;;5049756;28;20692;-83
2022/07/25 04:40:32;;;;;;;2.83;2.30;;;16.30;99.90;;;;;;5050642;28;20382;-82
2022/07/25 04:42:58;;;;;;;4.18;2.35;;;16.50;99.90;;;;;;5049349;28;20376;-83
2022/07/25 04:45:24;;;;;;;3.63;2.40;;;16.80;99.90;;;;;;5063193;28;20409;-83
2022/07/25 04:47:50;;;;;;;2.50;2.30;;;17.20;99.90;;;;;;5069638;28;20439;-83
2022/07/25 04:50:16;;;;;;;2.67;2.05;;;17.70;99.90;;;;;;5052956;28;20921;-84
2022/07/25 04:52:42;;;;;;;2.15;1.95;;;18.10;99.90;;;;;;5069460;28;20386;-84
2022/07/25 04:55:08;;;;;;;2.78;2.00;;;18.50;99.90;;;;;;5070702;28;20373;-83
2022/07/25 04:57:34;;;;;;;2.55;1.98;;;18.80;99.90;;;;;;5070461;28;20371;-84
2022/07/25 05:00:00;;;;;;;3.58;2.25;;;19.10;99.90;;;;;;5070719;28;20366;-84
2022/07/25 05:02:26;;;;;;;4.83;2.30;;;19.50;99.90;;;;;;5052465;28;20500;-84
2022/07/25 05:04:52;;;;;;;5.28;2.28;;;19.70;99.90;;;;;;5070531;28;20496;-84
2022/07/25 05:07:17;;;;;;;2.28;2.05;;;19.90;99.90;;;;;;5052080;28;20405;-84
2022/07/25 05:09:44;;;;;;;3.20;2.10;;;20.00;99.90;;;;;;5052106;28;20374;-84
2022/07/25 05:12:10;;;;;;;3.15;2.40;;;20.10;99.90;;;;;;5051882;28;20385;-83
2022/07/25 05:14:36;;;;;;;10.73;2.50;;;20.40;99.90;;;;;;5070522;28;20872;-84
2022/07/25 05:17:01;;;;;;;4.03;2.33;;;20.50;99.90;;;;;;5070214;28;20467;-85
2022/07/25 05:19:27;;;;;;;4.57;2.40;;;20.60;99.90;;;;;;5070348;28;20766;-84
2022/07/25 05:21:52;;;;;;;4.13;2.30;;;20.70;99.90;;;;;;5069624;28;20393;-85
2022/07/25 05:24:18;;;;;;;2.70;2.20;;;20.90;99.90;;;;;;5051771;28;20398;-85
2022/07/25 05:26:44;;;;;;;6.70;2.65;;;21.10;99.90;;;;;;5070184;28;20852;-84
2022/07/25 05:29:09;;;;;;;8.70;2.50;;;21.30;99.90;;;;;;5052450;28;20459;-84
2022/07/25 05:31:35;;;;;;;6.80;2.33;;;21.50;99.90;;;;;;5051346;28;20477;-84
2022/07/25 05:34:01;;;;;;;3.35;2.30;;;21.60;99.90;;;;;;5070169;28;20374;-85
2022/07/25 05:36:27;;;;;;;5.15;2.50;;;21.70;99.90;;;;;;5069339;28;21135;-84
2022/07/25 05:38:53;;;;;;;3.50;2.50;;;21.80;99.90;;;;;;5070107;28;20871;-85
2022/07/25 05:41:19;;;;;;;2.78;2.50;;;21.90;99.90;;;;;;5069794;28;20378;-83
2022/07/25 05:43:46;;;;;;;4.50;2.58;;;22.00;99.90;;;;;;5051437;28;20427;-85
2022/07/25 05:46:12;;;;;;;4.15;2.80;;;22.10;99.90;;;;;;5069504;28;20434;-84
2022/07/25 05:48:38;;;;;;;4.53;2.80;;;22.20;99.90;;;;;;5069704;28;20407;-85
2022/07/25 05:51:03;;;;;;;4.28;2.50;;;22.30;99.90;;;;;;5051237;28;20739;-85
2022/07/25 05:53:29;;;;;;;3.83;2.70;;;22.40;99.90;;;;;;5051128;28;20386;-85
2022/07/25 05:55:55;;;;;;;6.30;2.95;;;22.50;99.90;;;;;;5051601;28;20391;-84
2022/07/25 05:58:21;;;;;;;5.13;2.70;;;22.60;99.90;;;;;;5069070;28;20451;-85
2022/07/25 06:00:46;;;;;;;3.00;2.53;;;22.70;99.90;;;;;;5050901;28;20448;-86
2022/07/25 06:03:12;;;;;;;3.63;2.70;;;22.80;99.90;;;;;;5050974;28;20382;-83
2022/07/25 06:05:37;;;;;;;4.30;3.03;;;23.00;99.90;;;;;;5069975;28;20381;-83
2022/07/25 06:08:03;;;;;;;4.10;2.80;;;23.10;99.90;;;;;;5050538;28;20397;-84
2022/07/25 06:10:29;;;;;;;3.90;2.70;;;23.20;99.90;;;;;;5051597;28;20380;-84
2022/07/25 06:12:54;;;;;;;3.05;2.70;;;23.20;99.90;;;;;;5050451;28;20916;-83
2022/07/25 06:15:21;;;;;;;3.07;2.73;;;23.30;99.90;;;;;;5069240;28;20417;-85
2022/07/25 06:17:46;;;;;;;3.92;3.00;;;23.50;99.90;;;;;;5050964;28;20378;-83
2022/07/25 06:20:12;;;;;;;6.97;3.37;;;23.60;99.90;;;;;;5051049;28;20389;-85
2022/07/25 06:22:39;;;;;;;3.35;2.83;;;23.80;99.90;;;;;;5049713;28;20405;-84
2022/07/25 06:25:05;;;;;;;4.65;3.13;;;23.90;99.90;;;;;;5051052;28;20439;-86
2022/07/25 06:27:31;;;;;;;8.02;3.85;;;24.10;99.90;;;;;;5050554;28;20381;-86
2022/07/25 06:29:57;;;;;;;5.32;3.10;;;24.20;99.90;;;;;;5068726;28;20370;-85
2022/07/25 06:32:22;;;;;;;8.60;3.35;;;24.40;99.90;;;;;;5050907;28;20458;-85
2022/07/25 06:34:48;;;;;;;4.00;3.10;;;24.60;99.90;;;;;;5069587;28;20373;-85
2022/07/25 06:37:14;;;;;;;17.02;4.68;;;24.80;99.90;;;;;;5050601;28;20390;-86
2022/07/25 06:39:40;;;;;;;6.82;3.60;;;25.00;99.70;;;;;;5069271;28;20393;-85
2022/07/25 06:42:06;;;;;;;5.20;3.27;;;25.30;99.40;;;;;;5050042;28;20378;-87
2022/07/25 06:44:32;;;;;;;3.53;3.20;;;25.60;99.10;;;;;;5068391;28;20560;-86
2022/07/25 06:46:59;;;;;;;7.88;3.90;;;25.90;98.40;;;;;;5069073;28;20371;-86
2022/07/25 06:49:25;;;;;;;4.63;3.65;;;26.30;98.40;;;;;;5051363;28;20386;-85
2022/07/25 06:51:50;;;;;;;5.05;3.53;;;26.70;97.50;;;;;;5050184;28;20912;-84
2022/07/25 06:54:17;;;;;;;6.00;3.73;;;27.10;96.90;;;;;;5069342;28;20874;-85
2022/07/25 06:56:43;;;;;;;5.30;3.60;;;27.60;97.00;;;;;;5051387;28;20385;-85
2022/07/25 06:59:09;;;;;;;5.80;3.70;;;27.90;96.10;;;;;;5068672;28;20386;-85
2022/07/25 07:01:35;;;;;;;5.05;3.65;;;28.00;95.30;;;;;;5050545;28;20948;-86
2022/07/25 07:04:01;;;;;;;7.90;4.05;;;28.40;94.40;;;;;;5051749;28;20519;-86
2022/07/25 07:06:27;;;;;;;7.63;3.85;;;28.60;93.40;;;;;;5051768;28;20422;-84
2022/07/25 07:08:52;;;;;;;4.20;3.80;;;28.80;93.70;;;;;;5051075;28;20489;-86
2022/07/25 07:11:18;;;;;;;4.77;4.23;;;29.00;93.20;;;;;;5052700;28;20879;-86
2022/07/25 07:13:44;;;;;;;5.30;3.85;;;29.30;93.00;;;;;;5039374;28;20395;-84
2022/07/25 07:16:09;;;;;;;4.70;4.20;;;29.50;92.70;;;;;;5052199;28;20372;-86
2022/07/25 07:18:36;;;;;;;4.93;4.20;;;29.60;92.00;;;;;;5034005;28;20437;-85
2022/07/25 07:21:02;;;;;;;6.15;4.00;;;29.80;91.10;;;;;;5031979;28;20408;-85
2022/07/25 07:23:28;;;;;;;5.53;4.07;;;29.90;91.60;;;;;;5052135;28;20459;-85
2022/07/25 07:25:54;;;;;;;6.70;4.05;;;29.90;91.80;;;;;;5034203;28;20463;-87
2022/07/25 07:28:20;;;;;;;38.50;6.18;;;30.10;91.50;;;;;;5034029;28;20485;-85
2022/07/25 07:30:45;;;;;;;4.70;4.20;;;30.00;90.50;;;;;;5051870;28;21262;-87
2022/07/25 07:33:11;;;;;;;5.90;4.28;;;29.90;90.90;;;;;;5034142;28;20936;-85
2022/07/25 07:35:37;;;;;;;11.35;4.63;;;29.90;90.90;;;;;;5052129;28;20433;-85
2022/07/25 07:38:02;;;;;;;17.83;5.67;;;29.90;91.20;;;;;;5034050;28;20901;-86
2022/07/25 07:40:28;;;;;;;8.17;5.07;;;29.90;90.90;;;;;;5052462;28;20403;-84
2022/07/25 07:42:55;;;;;;;7.13;4.25;;;29.80;91.40;;;;;;5033757;28;20410;-85
2022/07/25 07:45:23;;;;;;;5.57;4.20;;;29.80;91.10;;;;;;5051424;28;20415;-88
2022/07/25 07:47:51;;;;;;;6.22;4.55;;;29.90;91.20;;;;;;5051546;28;20885;-86
2022/07/25 07:50:20;;;;;;;12.82;5.22;;;30.00;90.90;;;;;;5052171;28;20372;-85
2022/07/25 07:52:47;;;;;;;5.93;4.70;;;30.10;91.10;;;;;;5051399;28;20391;-85
2022/07/25 07:57:58;;;;;;;5.53;4.80;;;30.20;90.70;;;;;;5051877;28;20734;-86
2022/07/25 08:00:34;;;;;;;6.95;4.55;;;30.20;90.60;;;;;;5035413;28;20388;-86
2022/07/25 08:03:01;;;;;;;6.40;4.57;;;30.40;90.40;;;;;;5035551;28;21256;-84
2022/07/25 08:05:32;;;;;;;5.47;4.97;;;30.40;90.60;;;;;;5035370;28;20426;-85
2022/07/25 08:07:59;;;;;;;5.25;4.75;;;30.40;89.80;;;;;;5034798;28;20758;-85
2022/07/25 08:10:30;;;;;;;25.48;7.70;;;30.40;90.40;;;;;;5033860;28;20464;-85
2022/07/25 08:12:57;;;;;;;5.65;5.00;;;30.60;90.50;;;;;;5055513;28;20386;-87
2022/07/25 08:15:23;;;;;;;5.30;4.80;;;30.80;90.20;;;;;;5045915;28;20391;-84
2022/07/25 08:17:50;;;;;;;5.88;5.25;;;30.80;89.40;;;;;;5045508;28;20408;-84
2022/07/25 08:20:17;;;;;;;6.03;5.35;;;30.80;90.00;;;;;;5033877;28;20412;-85
2022/07/25 08:22:45;;;;;;;6.55;5.93;;;30.90;88.80;;;;;;5032607;28;20387;-84
2022/07/25 08:25:16;;;;;;;7.68;5.60;;;30.70;89.10;;;;;;5034326;28;20474;-85
2022/07/25 08:27:42;;;;;;;11.47;5.60;;;30.70;89.90;;;;;;5045422;28;20392;-85
2022/07/25 08:30:09;;;;;;;8.55;5.82;;;30.80;89.10;;;;;;5034801;28;21136;-85
2022/07/25 08:32:55;;;;;;;13.73;5.80;;;30.90;89.70;;;;;;5052724;28;20428;-88
2022/07/25 08:35:23;;;;;;;7.30;5.47;;;31.00;89.50;;;;;;5053226;28;20876;-85
2022/07/25 08:37:50;;;;;;;7.27;5.67;;;31.10;90.00;;;;;;5035779;28;20475;-84
2022/07/25 08:40:18;;;;;;;6.57;5.38;;;31.20;89.80;;;;;;5032820;28;20761;-83
2022/07/25 08:42:44;;;;;;;5.95;5.30;;;31.10;88.80;;;;;;5033113;28;20384;-86
2022/07/25 08:45:15;;;;;;;6.45;5.20;;;31.30;88.50;;;;;;5031860;28;20819;-86
2022/07/25 08:47:41;;;;;;;6.32;5.13;;;31.40;88.90;;;;;;5031171;28;20434;-86
2022/07/25 08:50:19;;;;;;;6.17;5.57;;;31.60;87.20;;;;;;5030323;28;20483;-84
2022/07/25 08:52:47;;;;;;;6.13;5.10;;;31.60;86.90;;;;;;5048178;28;20391;-85
2022/07/25 08:55:21;;;;;;;8.15;5.55;;;31.70;86.70;;;;;;5031253;28;22100;-86
2022/07/25 08:57:49;;;;;;;6.10;5.38;;;31.80;86.10;;;;;;5058957;28;20435;-86
2022/07/25 09:00:17;;;;;;;10.07;5.88;;;31.90;86.40;;;;;;5060821;28;20374;-85
2022/07/25 09:02:51;;;;;;;7.53;5.85;;;31.90;86.30;;;;;;5039020;28;20392;-87
2022/07/25 09:05:18;;;;;;;8.75;5.78;;;31.90;86.00;;;;;;5041118;28;20414;-87
2022/07/25 09:07:44;;;;;;;7.33;5.80;;;31.90;85.60;;;;;;5063128;28;20384;-86
2022/07/25 09:10:28;;;;;;;31.88;8.43;;;31.80;85.00;;;;;;5067965;28;20809;-86
2022/07/25 09:12:58;;;;;;;15.18;5.93;;;31.70;86.40;;;;;;5057947;28;20382;-88
2022/07/25 09:15:35;;;;;;;6.82;5.22;;;31.70;85.70;;;;;;5042363;28;20451;-84
2022/07/25 09:18:07;;;;;;;8.10;5.47;;;31.90;87.60;;;;;;5042168;28;20390;-87
2022/07/25 09:20:50;;;;;;;9.20;6.13;;;32.00;84.30;;;;;;5063091;28;20388;-85
2022/07/25 09:23:32;;;;;;;10.52;6.15;;;32.00;84.60;;;;;;5045275;28;20502;-86
2022/07/25 09:26:10;;;;;;;7.55;5.70;;;32.20;85.90;;;;;;5045978;28;20433;-86
2022/07/25 09:28:45;;;;;;;9.13;5.57;;;32.40;84.80;;;;;;5046408;28;20398;-86
2022/07/25 09:31:12;;;;;;;6.90;6.20;;;32.50;85.20;;;;;;5052498;28;20389;-88
2022/07/25 09:33:50;;;;;;;7.80;6.35;;;32.60;85.50;;;;;;5041686;28;20422;-87
2022/07/25 09:36:16;;;;;;;8.45;6.28;;;32.50;85.20;;;;;;5053241;28;20394;-85
2022/07/25 09:39:01;;;;;;;7.38;6.22;;;32.70;84.40;;;;;;5068303;28;20426;-87
2022/07/25 09:41:38;;;;;;;6.43;5.82;;;32.70;84.20;;;;;;5050039;28;20400;-86
2022/07/25 09:44:31;;;;;;;9.88;5.93;;;32.70;84.80;;;;;;5051299;28;20487;-87
2022/07/25 09:46:59;;;;;;;9.45;6.47;;;32.80;84.80;;;;;;5069039;28;20392;-88
2022/07/25 09:49:35;;;;;;;8.90;6.50;;;32.90;84.60;;;;;;5051724;28;20386;-87
2022/07/25 09:52:01;;;;;;;7.75;6.75;;;33.10;84.40;;;;;;5067728;28;20378;-87
2022/07/25 09:54:29;;;;;;;7.50;6.22;;;33.10;82.70;;;;;;5049284;28;20413;-87
2022/07/25 09:56:54;;;;;;;7.03;6.07;;;33.10;83.00;;;;;;5051255;28;20410;-85
2022/07/25 09:59:20;;;;;;;7.33;6.60;;;33.10;82.60;;;;;;5069033;28;20425;-87
2022/07/25 10:02:05;;;;;;;13.77;6.97;;;33.20;84.10;;;;;;5050111;28;20385;-87
2022/07/25 10:05:10;;;;;;;8.68;7.22;;;33.40;81.10;;;;;;5051495;28;20433;-87
2022/07/25 10:07:48;;;;;;;7.33;6.63;;;33.60;82.30;;;;;;5030976;28;20716;-86
2022/07/25 10:10:28;;;;;;;8.52;6.22;;;33.70;81.00;;;;;;5069157;28;20393;-88
2022/07/25 10:13:14;;;;;;;7.50;6.63;;;33.70;81.90;;;;;;5050814;28;20390;-84
2022/07/25 10:15:44;;;;;;;8.55;6.50;;;33.70;80.70;;;;;;5051138;28;20469;-87
2022/07/25 10:18:10;;;;;;;7.13;6.32;;;33.70;80.90;;;;;;5050902;28;20846;-87
2022/07/25 10:20:36;;;;;;;10.18;6.93;;;33.60;79.80;;;;;;5051235;28;20747;-87
2022/07/25 10:23:02;;;;;;;8.10;6.93;;;33.60;79.80;;;;;;5051082;28;20465;-83
2022/07/25 10:25:27;;;;;;;7.80;6.75;;;33.60;79.10;;;;;;5068018;28;20463;-87
2022/07/25 10:27:59;;;;;;;8.27;6.90;;;33.60;79.90;;;;;;5051322;28;20774;-85
2022/07/25 10:30:36;;;;;;;7.70;6.63;;;33.70;80.40;;;;;;5050935;28;20378;-86
2022/07/25 10:33:05;;;;;;;7.88;6.80;;;33.90;80.80;;;;;;5050618;28;20401;-87
2022/07/25 10:35:31;;;;;;;7.47;6.60;;;34.20;80.50;;;;;;5050661;28;20871;-86
2022/07/25 10:37:58;;;;;;;7.17;6.47;;;34.30;78.00;;;;;;5050858;28;20435;-89
2022/07/25 10:40:28;;;;;;;8.88;6.53;;;34.40;78.10;;;;;;5049986;28;20426;-85
2022/07/25 10:43:05;;;;;;;7.40;6.70;;;34.50;77.00;;;;;;5068324;28;20402;-87
2022/07/25 10:45:40;;;;;;;11.90;7.55;;;34.50;76.90;;;;;;5070588;28;20524;-85
2022/07/25 10:48:11;;;;;;;7.15;6.45;;;34.40;76.70;;;;;;5054810;28;20382;-87
2022/07/25 10:50:51;;;;;;;9.05;6.55;;;34.50;76.80;;;;;;5055345;28;20443;-88
2022/07/25 10:53:29;;;;;;;7.35;6.55;;;34.70;77.20;;;;;;5054734;28;20425;-86
2022/07/25 10:56:20;;;;;;;7.57;6.38;;;34.90;77.50;;;;;;5053934;28;20398;-87
2022/07/25 10:58:50;;;;;;;8.32;6.78;;;35.00;76.90;;;;;;5054968;28;20390;-85
2022/07/25 11:01:24;;;;;;;6.72;6.03;;;35.10;76.40;;;;;;5071894;28;20408;-87
2022/07/25 11:03:51;;;;;;;6.53;5.93;;;35.20;75.20;;;;;;5072839;28;20402;-88
2022/07/25 11:06:31;;;;;;;8.85;6.55;;;35.30;73.80;;;;;;5073576;28;20370;-87
2022/07/25 11:08:59;;;;;;;7.00;6.32;;;35.20;75.00;;;;;;5072544;28;20853;-89
2022/07/25 11:11:35;;;;;;;7.03;6.32;;;35.20;75.20;;;;;;5053482;28;20394;-87
2022/07/25 11:14:01;;;;;;;8.57;6.20;;;35.20;74.90;;;;;;5073057;28;20385;-88
2022/07/25 11:16:26;;;;;;;6.78;6.13;;;35.20;73.40;;;;;;5054878;28;20788;-87
2022/07/25 11:18:53;;;;;;;9.03;6.43;;;35.10;73.30;;;;;;5054536;28;20378;-86
2022/07/25 11:21:19;;;;;;;10.73;6.30;;;35.20;73.00;;;;;;5057441;28;20842;-86
2022/07/25 11:23:50;;;;;;;6.88;6.28;;;35.50;73.50;;;;;;5052836;28;20408;-86
2022/07/25 11:26:16;;;;;;;6.95;6.35;;;;;;;;;;5052174;28;20814;-87
2022/07/25 11:28:47;;;;;;;6.78;6.07;;;35.80;71.80;;;;;;5034984;28;20455;-87
2022/07/25 11:31:14;;;;;;;7.40;6.70;;;35.80;71.40;;;;;;5052268;28;20406;-84
2022/07/25 11:33:43;;;;;;;7.10;6.40;;;35.40;72.90;;;;;;5052645;28;21076;-86
2022/07/25 11:36:09;;;;;;;6.53;5.93;;;35.20;72.80;;;;;;5052311;28;20815;-88
2022/07/25 11:38:37;;;;;;;7.07;6.30;;;35.20;72.00;;;;;;5034515;28;20388;-87
2022/07/25 11:41:03;;;;;;;7.85;6.55;;;35.30;72.40;;;;;;5051450;28;20770;-85
2022/07/25 11:43:29;;;;;;;8.57;6.78;;;35.50;72.60;;;;;;5033544;28;20742;-85
2022/07/25 11:45:59;;;;;;;6.78;6.18;;;35.60;71.40;;;;;;5048002;28;20380;-87
2022/07/25 11:48:34;;;;;;;7.45;6.72;;;35.70;71.50;;;;;;5052182;28;20553;-87
2022/07/25 11:51:15;;;;;;;7.22;6.40;;;35.50;71.50;;;;;;5050456;28;20375;-85
2022/07/25 11:53:47;;;;;;;8.05;6.28;;;35.30;70.90;;;;;;5051222;28;20407;-86
2022/07/25 11:56:15;;;;;;;7.30;6.30;;;35.20;70.40;;;;;;5050200;28;20402;-87
2022/07/25 11:58:41;;;;;;;8.68;6.53;;;35.30;70.30;;;;;;5047119;28;20403;-87
2022/07/25 12:01:13;;;;;;;6.70;5.90;;;35.50;70.80;;;;;;5050378;28;20411;-87
2022/07/25 12:03:38;;;;;;;6.68;5.75;;;35.70;69.50;;;;;;5050613;28;20384;-87
2022/07/25 12:06:12;;;;;;;8.07;6.17;;;36.00;68.90;;;;;;5066934;28;20392;-87
2022/07/25 12:08:40;;;;;;;6.53;5.85;;;36.10;69.30;;;;;;5070354;28;21263;-87
2022/07/25 12:11:21;;;;;;;7.78;6.70;;;36.00;69.60;;;;;;5071551;28;20386;-88
2022/07/25 12:13:48;;;;;;;7.68;6.80;;;35.80;68.10;;;;;;5070525;28;20476;-88
2022/07/25 12:16:15;;;;;;;7.90;6.60;;;35.80;68.00;;;;;;5056708;28;20966;-88
2022/07/25 12:18:40;;;;;;;8.23;6.20;;;35.80;68.50;;;;;;5049974;28;20373;-86
2022/07/25 12:21:06;;;;;;;11.23;7.00;;;35.60;69.50;;;;;;5051210;28;20729;-87
2022/07/25 12:23:33;;;;;;;7.25;6.28;;;35.50;68.90;;;;;;5049897;28;20434;-86
2022/07/25 12:25:58;;;;;;;8.73;6.50;;;35.50;68.80;;;;;;5050933;28;20486;-86
2022/07/25 12:28:24;;;;;;;6.88;6.15;;;35.60;68.70;;;;;;5050250;28;20487;-85
2022/07/25 12:30:50;;;;;;;6.72;6.20;;;35.50;67.30;;;;;;5049468;28;20376;-86
2022/07/25 12:33:16;;;;;;;6.67;6.00;;;35.60;97.00;;;;;;5050752;28;20360;-87
2022/07/25 12:35:43;;;;;;;6.90;6.30;;;35.60;97.70;;;;;;5050831;28;20377;-87
2022/07/25 12:38:09;;;;;;;7.00;6.35;;;35.40;66.80;;;;;;5040343;28;20387;-85
2022/07/25 12:40:35;;;;;;;7.03;6.18;;;35.50;66.40;;;;;;5031254;28;20408;-88
2022/07/25 12:43:03;;;;;;;7.70;6.10;;;35.50;66.90;;;;;;5032078;28;20395;-85
2022/07/25 12:45:29;;;;;;;6.87;6.17;;;35.70;67.70;;;;;;5029707;28;20407;-85
2022/07/25 12:47:55;;;;;;;7.10;6.47;;;;;;;;;;5025856;28;20431;-86
2022/07/25 12:50:24;;;;;;;7.07;6.38;;;;;;;;;;5026630;28;20528;-87
2022/07/25 12:52:50;;;;;;;6.90;6.23;;;;;;;;;;5026736;28;20848;-88